createdAt,value
2023-03-03T00:03:27.307Z,28.70
2023-03-03T00:08:29.221Z,35.47
2023-03-03T00:13:32.584Z,34.47
2023-03-03T00:18:35.609Z,33.43
2023-03-03T00:23:38.020Z,37.00
2023-03-03T00:28:44.717Z,33.93
2023-03-03T00:33:48.176Z,34.70
2023-03-03T00:38:49.948Z,37.30
2023-03-03T00:43:53.073Z,38.20
2023-03-03T00:48:54.836Z,42.57
2023-03-03T00:53:56.739Z,36.53
2023-03-03T00:58:59.752Z,38.30
2023-03-03T01:04:03.705Z,39.23
2023-03-03T01:09:06.259Z,38.40
2023-03-03T01:14:10.531Z,33.13
2023-03-03T01:19:12.264Z,34.80
2023-03-03T01:24:14.028Z,31.97
2023-03-03T01:29:17.045Z,36.53
2023-03-03T01:34:18.878Z,30.90
2023-03-03T01:39:20.552Z,38.33
2023-03-03T01:44:23.609Z,38.93
2023-03-03T01:49:26.558Z,33.63
2023-03-03T01:54:29.485Z,33.70
2023-03-03T01:59:34.148Z,33.70
2023-03-03T02:04:35.938Z,30.97
2023-03-03T02:09:42.940Z,34.07
2023-03-03T02:14:45.988Z,28.70
2023-03-03T02:19:51.874Z,33.87
2023-03-03T02:24:55.308Z,36.97
2023-03-03T02:29:58.729Z,34.30
2023-03-03T02:35:00.871Z,35.70
2023-03-03T02:40:02.822Z,35.67
2023-03-03T02:45:07.999Z,34.37
2023-03-03T02:50:10.852Z,32.63
2023-03-03T02:55:12.563Z,33.43
2023-03-03T03:00:16.049Z,38.83
2023-03-03T03:05:17.794Z,36.93
2023-03-03T03:10:20.653Z,37.70
2023-03-03T03:15:24.574Z,34.57
2023-03-03T03:20:26.333Z,36.97
2023-03-03T03:25:28.408Z,37.93
2023-03-03T03:30:32.302Z,37.57
2023-03-03T03:35:34.274Z,36.10
2023-03-03T03:40:36.073Z,41.23
2023-03-03T03:45:39.625Z,42.23
2023-03-03T03:50:42.320Z,39.00
2023-03-03T03:55:44.825Z,36.97
2023-03-03T04:00:48.520Z,37.60
2023-03-03T04:05:52.592Z,35.53
2023-03-03T04:10:54.918Z,38.93
2023-03-03T04:15:58.122Z,38.27
2023-03-03T04:20:59.964Z,38.10
2023-03-03T04:26:03.067Z,38.23
2023-03-03T04:31:06.943Z,35.23
2023-03-03T04:36:09.485Z,35.90
2023-03-03T04:41:12.440Z,41.90
2023-03-03T04:46:15.951Z,36.80
2023-03-03T04:51:18.695Z,33.80
2023-03-03T04:56:20.745Z,35.23
2023-03-03T05:01:25.867Z,35.23
2023-03-03T05:06:27.696Z,32.40
2023-03-03T05:11:29.470Z,36.30
2023-03-03T05:16:32.498Z,41.13
2023-03-03T05:21:36.919Z,38.90
2023-03-03T05:26:39.773Z,34.83
2023-03-03T05:31:45.414Z,33.33
2023-03-03T05:36:47.267Z,38.10
2023-03-03T05:41:49.008Z,36.70
2023-03-03T05:46:52.187Z,31.00
2023-03-03T05:51:53.890Z,35.00
2023-03-03T05:56:57.251Z,33.83
2023-03-03T06:02:00.291Z,32.63
2023-03-03T06:07:01.954Z,32.03
2023-03-03T06:12:03.874Z,31.47
2023-03-03T06:17:06.879Z,39.17
2023-03-03T06:22:08.733Z,37.00
2023-03-03T06:27:10.474Z,35.47
2023-03-03T06:32:13.572Z,38.00
2023-03-03T06:37:15.312Z,33.50
2023-03-03T06:42:17.070Z,34.70
2023-03-03T06:47:20.107Z,32.13
2023-03-03T06:52:23.668Z,34.00
2023-03-03T06:57:26.811Z,35.07
2023-03-03T07:02:29.862Z,36.47
2023-03-03T07:07:31.541Z,43.80
2023-03-03T07:12:33.250Z,32.23
2023-03-03T07:17:36.289Z,33.10
2023-03-03T07:22:37.964Z,33.73
2023-03-03T07:27:39.631Z,32.77
2023-03-03T07:32:43.480Z,32.60
2023-03-03T07:37:45.170Z,38.20
2023-03-03T07:42:47.045Z,30.87
2023-03-03T07:48:09.232Z,33.40
2023-03-03T07:53:12.878Z,29.23
2023-03-03T07:58:19.120Z,33.00
2023-03-03T08:03:22.161Z,26.77
2023-03-03T08:08:31.476Z,29.77
2023-03-03T08:13:39.874Z,25.77
2023-03-03T08:18:46.266Z,28.63
2023-03-03T08:23:51.440Z,27.53
2023-03-03T08:28:53.372Z,22.70
2023-03-03T08:33:56.987Z,28.60
2023-03-03T08:38:58.686Z,24.13
2023-03-03T08:44:00.390Z,23.00
2023-03-03T08:49:03.441Z,27.60
2023-03-03T08:54:05.202Z,25.07
2023-03-03T08:59:06.925Z,23.10
2023-03-03T09:04:10.157Z,24.40
2023-03-03T09:09:11.874Z,21.87
2023-03-03T09:14:14.394Z,29.60
2023-03-03T09:19:21.292Z,29.08
2023-03-03T09:24:26.945Z,29.87
2023-03-03T09:29:29.366Z,25.27
2023-03-03T09:34:38.497Z,28.47
2023-03-03T09:39:40.230Z,25.93
2023-03-03T09:45:15.175Z,31.17
2023-03-03T09:50:27.829Z,26.33
2023-03-03T09:55:37.252Z,27.90
2023-03-03T10:00:43.855Z,26.07
2023-03-03T10:05:49.433Z,29.50
2023-03-03T10:10:56.823Z,26.70
2023-03-03T10:16:19.722Z,23.17
2023-03-03T10:21:24.371Z,20.67
2023-03-03T10:27:13.124Z,21.60
2023-03-03T10:32:51.597Z,27.47
2023-03-03T10:38:02.638Z,25.47
2023-03-03T10:43:31.846Z,23.80
2023-03-03T10:48:42.938Z,23.37
2023-03-03T10:53:48.446Z,24.17
2023-03-03T10:58:55.113Z,22.83
2023-03-03T11:04:21.215Z,22.03
2023-03-03T11:09:47.499Z,21.80
2023-03-03T11:14:51.254Z,25.33
2023-03-03T11:19:59.738Z,25.13
2023-03-03T11:25:08.502Z,27.60
2023-03-03T11:30:22.397Z,25.97
2023-03-03T11:35:26.520Z,28.83
2023-03-03T11:40:32.784Z,28.73
2023-03-03T11:45:37.708Z,26.97
2023-03-03T11:50:42.759Z,23.60
2023-03-03T11:55:49.553Z,22.93
2023-03-03T12:00:52.136Z,25.17
2023-03-03T12:05:56.642Z,28.17
2023-03-03T12:11:01.962Z,23.37
2023-03-03T12:16:07.565Z,26.47
2023-03-03T12:21:15.978Z,26.60
2023-03-03T12:26:20.583Z,30.83
2023-03-03T12:31:31.067Z,36.07
2023-03-03T12:36:45.222Z,32.17
2023-03-03T12:41:51.586Z,35.37
2023-03-03T12:46:56.638Z,32.70
2023-03-03T12:52:06.049Z,31.53
2023-03-03T12:57:14.303Z,40.50
2023-03-03T13:02:26.805Z,34.57
2023-03-03T13:07:31.902Z,35.90
2023-03-03T13:12:39.089Z,34.90
2023-03-03T13:17:43.666Z,36.60
2023-03-03T13:22:48.312Z,42.90
2023-03-03T13:27:53.540Z,53.75
2023-03-03T13:32:58.966Z,44.33
2023-03-03T13:38:00.737Z,48.00
2023-03-03T13:43:05.024Z,45.35
2023-03-03T13:48:10.793Z,40.80
2023-03-03T13:53:25.489Z,42.30
2023-03-03T13:58:34.354Z,41.83
2023-03-03T14:03:52.676Z,39.00
2023-03-03T14:09:15.410Z,38.53
2023-03-03T14:14:28.400Z,45.90
2023-03-03T14:19:33.009Z,38.13
2023-03-03T14:24:54.999Z,38.60
2023-03-03T14:29:58.105Z,41.17
2023-03-03T14:35:02.472Z,37.43
2023-03-03T14:40:15.083Z,33.80
2023-03-03T14:45:30.619Z,39.90
2023-03-03T14:50:36.502Z,34.80
2023-03-03T14:55:39.674Z,85.30
2023-03-03T15:00:43.005Z,44.47
2023-03-03T15:05:49.587Z,37.97
2023-03-03T15:10:51.379Z,38.33
2023-03-03T15:16:03.427Z,39.00
2023-03-03T15:21:05.315Z,39.57
2023-03-03T15:26:09.596Z,40.30
2023-03-03T15:31:18.284Z,39.13
2023-03-03T15:36:25.798Z,36.00
2023-03-03T15:41:37.181Z,36.33
2023-03-03T15:46:51.219Z,35.60
2023-03-03T15:52:03.732Z,35.80
2023-03-03T15:57:13.183Z,36.83
2023-03-03T16:02:18.106Z,37.90
2023-03-03T16:07:26.519Z,40.87
2023-03-03T16:12:31.260Z,45.93
2023-03-03T16:17:39.376Z,46.43
2023-03-03T16:22:54.717Z,41.90
2023-03-03T16:27:58.420Z,51.73
2023-03-03T16:33:09.321Z,48.93
2023-03-03T16:38:12.772Z,52.40
2023-03-03T16:43:19.158Z,50.53
2023-03-03T16:48:26.009Z,41.97
2023-03-03T16:53:39.646Z,44.97
2023-03-03T16:58:46.506Z,51.27
2023-03-03T17:03:58.552Z,49.27
2023-03-03T17:09:32.250Z,47.00
2023-03-03T17:14:44.442Z,44.30
2023-03-03T17:19:57.291Z,42.10
2023-03-03T17:25:08.695Z,43.30
2023-03-03T17:30:13.004Z,52.20
2023-03-03T17:35:24.061Z,45.50
2023-03-03T17:40:34.698Z,46.27
2023-03-03T17:45:37.745Z,45.33
2023-03-03T17:50:56.044Z,54.07
2023-03-03T17:56:08.574Z,56.43
2023-03-03T18:01:17.531Z,60.47
2023-03-03T18:06:32.349Z,63.90
2023-03-03T18:11:45.082Z,60.67
2023-03-03T18:16:56.735Z,58.73
2023-03-03T18:22:05.720Z,60.28
2023-03-03T18:27:27.828Z,58.60
2023-03-03T18:32:40.160Z,59.07
2023-03-03T18:37:44.965Z,67.47
2023-03-03T18:42:49.037Z,65.13
2023-03-03T18:48:04.381Z,78.03
2023-03-03T18:53:15.921Z,77.07
2023-03-03T18:58:42.216Z,87.17
2023-03-03T19:04:01.532Z,81.03
2023-03-03T19:09:04.642Z,75.27
2023-03-03T19:14:29.601Z,84.63
2023-03-03T19:19:34.859Z,80.83
2023-03-03T19:24:38.373Z,86.70
2023-03-03T19:30:11.046Z,82.40
2023-03-03T19:35:24.292Z,79.67
2023-03-03T19:40:28.871Z,81.77
2023-03-03T19:45:43.495Z,80.60
2023-03-03T19:50:49.060Z,70.43
2023-03-03T19:56:00.825Z,75.30
2023-03-03T20:01:08.365Z,74.77
2023-03-03T20:06:17.148Z,78.60
2023-03-03T20:11:25.088Z,68.70
2023-03-03T20:16:33.506Z,65.60
2023-03-03T20:21:36.099Z,52.73
2023-03-03T20:26:43.656Z,56.17
2023-03-03T20:31:48.729Z,51.80
2023-03-03T20:36:56.442Z,48.17
2023-03-03T20:42:05.841Z,49.45
2023-03-03T20:47:10.533Z,37.07
2023-03-03T20:52:14.535Z,44.67
2023-03-03T20:57:19.486Z,41.07
2023-03-03T21:02:24.051Z,32.63
2023-03-03T21:07:26.189Z,30.63
2023-03-03T21:12:29.934Z,24.43
2023-03-03T21:17:31.773Z,28.33
2023-03-03T21:22:33.476Z,21.57
2023-03-03T21:27:39.149Z,30.37
2023-03-03T21:32:41.691Z,21.00
2023-03-03T21:37:45.760Z,25.40
2023-03-03T21:42:48.938Z,22.33
2023-03-03T21:47:50.793Z,32.00
2023-03-03T21:52:52.488Z,24.37
2023-03-03T21:57:55.521Z,24.10
2023-03-03T22:02:57.520Z,28.63
2023-03-03T22:07:59.253Z,20.10
2023-03-03T22:13:02.357Z,24.00
2023-03-03T22:18:04.363Z,21.10
2023-03-03T22:23:06.083Z,27.17
2023-03-03T22:28:09.242Z,21.57
2023-03-03T22:33:11.177Z,21.53
2023-03-03T22:38:12.884Z,31.80
2023-03-03T22:43:16.014Z,22.50
2023-03-03T22:48:17.778Z,28.07
2023-03-03T22:53:19.664Z,23.17
2023-03-03T22:58:25.366Z,32.23
2023-03-03T23:03:27.057Z,22.20
2023-03-03T23:08:28.785Z,20.17
2023-03-03T23:13:32.413Z,25.40
2023-03-03T23:18:34.069Z,24.30
2023-03-03T23:23:35.753Z,34.93
2023-03-03T23:28:38.724Z,21.93
2023-03-03T23:33:40.484Z,35.33
2023-03-03T23:38:43.242Z,25.80
2023-03-03T23:43:46.349Z,22.93
2023-03-03T23:48:48.000Z,25.20
2023-03-03T23:53:49.632Z,22.57
2023-03-03T23:58:52.652Z,37.40
